createdAt,value
2023-03-31T00:02:23.616Z,89.60
2023-03-31T00:04:54.054Z,88.98
2023-03-31T00:07:24.334Z,89.58
2023-03-31T00:10:06.798Z,89.76
2023-03-31T00:12:44.347Z,89.12
2023-03-31T00:15:15.176Z,88.72
2023-03-31T00:17:44.246Z,89.35
2023-03-31T00:20:16.367Z,92.89
2023-03-31T00:22:46.814Z,94.18
2023-03-31T00:25:17.365Z,94.22
2023-03-31T00:27:47.156Z,93.78
2023-03-31T00:30:18.136Z,94.78
2023-03-31T00:32:47.457Z,95.88
2023-03-31T00:35:16.632Z,95.94
2023-03-31T00:37:46.156Z,95.88
2023-03-31T00:40:15.360Z,96.51
2023-03-31T00:42:46.807Z,96.43
2023-03-31T00:45:31.622Z,97.14
2023-03-31T00:48:10.498Z,96.99
2023-03-31T00:50:49.527Z,96.98
2023-03-31T00:53:24.774Z,99.89
2023-03-31T00:55:56.905Z,98.14
2023-03-31T00:58:29.077Z,98.11
2023-03-31T01:01:02.629Z,96.08
2023-03-31T01:03:34.782Z,96.55
2023-03-31T01:06:06.376Z,96.19
2023-03-31T01:08:39.076Z,96.50
2023-03-31T01:11:11.594Z,94.15
2023-03-31T01:13:42.821Z,95.03
2023-03-31T01:16:13.937Z,97.47
2023-03-31T01:18:46.740Z,99.50
2023-03-31T01:22:07.107Z,100.00
2023-03-31T01:25:17.443Z,100.00
2023-03-31T01:28:08.885Z,98.23
2023-03-31T01:31:18.829Z,98.26
2023-03-31T01:34:32.355Z,96.67
2023-03-31T01:37:34.711Z,96.91
2023-03-31T01:40:41.477Z,96.38
2023-03-31T01:43:20.443Z,96.61
2023-03-31T01:45:59.039Z,95.88
2023-03-31T01:48:43.555Z,97.54
2023-03-31T01:51:19.846Z,98.00
2023-03-31T01:53:56.435Z,98.85
2023-03-31T01:56:34.657Z,98.99
2023-03-31T01:59:11.977Z,100.00
2023-03-31T02:01:49.503Z,100.00
2023-03-31T02:04:23.278Z,100.00
2023-03-31T02:07:01.937Z,100.00
2023-03-31T02:09:35.034Z,100.00
2023-03-31T02:12:09.275Z,100.00
2023-03-31T02:14:43.795Z,100.00
2023-03-31T02:17:19.548Z,100.00
2023-03-31T02:19:53.320Z,100.00
2023-03-31T02:22:25.450Z,100.00
2023-03-31T02:24:56.328Z,100.00
2023-03-31T02:27:29.823Z,100.00
2023-03-31T02:30:00.234Z,100.00
2023-03-31T02:32:33.964Z,100.00
2023-03-31T02:35:03.594Z,100.00
2023-03-31T02:37:33.026Z,100.00
2023-03-31T02:40:06.749Z,100.00
2023-03-31T02:42:38.621Z,100.00
2023-03-31T02:45:29.802Z,100.00
2023-03-31T02:47:59.326Z,100.00
2023-03-31T02:50:35.579Z,100.00
2023-03-31T02:53:11.845Z,100.00
2023-03-31T02:56:01.870Z,100.00
2023-03-31T02:58:47.409Z,100.00
2023-03-31T03:01:43.704Z,100.00
2023-03-31T03:04:38.753Z,100.00
2023-03-31T03:07:17.422Z,100.00
2023-03-31T03:09:59.742Z,100.00
2023-03-31T03:12:35.646Z,100.00
2023-03-31T03:15:12.597Z,100.00
2023-03-31T03:17:45.809Z,100.00
2023-03-31T03:20:16.556Z,100.00
2023-03-31T03:22:45.803Z,100.00
2023-03-31T03:25:18.509Z,100.00
2023-03-31T03:27:49.455Z,100.00
2023-03-31T03:30:21.097Z,100.00
2023-03-31T03:32:50.851Z,100.00
2023-03-31T03:35:20.185Z,100.00
2023-03-31T03:37:49.332Z,100.00
2023-03-31T03:40:19.796Z,100.00
2023-03-31T03:42:49.208Z,100.00
2023-03-31T03:45:19.775Z,100.00
2023-03-31T03:47:49.003Z,100.00
2023-03-31T03:50:18.381Z,100.00
2023-03-31T03:52:47.345Z,100.00
2023-03-31T03:55:18.110Z,100.00
2023-03-31T03:57:47.160Z,100.00
2023-03-31T04:00:17.344Z,100.00
2023-03-31T04:02:47.929Z,100.00
2023-03-31T04:05:18.076Z,100.00
2023-03-31T04:07:47.192Z,100.00
2023-03-31T04:10:16.209Z,100.00
2023-03-31T04:12:45.255Z,100.00
2023-03-31T04:15:14.225Z,100.00
2023-03-31T04:17:51.308Z,100.00
2023-03-31T04:20:27.946Z,100.00
2023-03-31T04:22:57.223Z,100.00
2023-03-31T04:25:26.194Z,100.00
2023-03-31T04:27:56.045Z,100.00
2023-03-31T04:30:31.362Z,100.00
2023-03-31T04:33:02.949Z,100.00
2023-03-31T04:35:50.145Z,100.00
2023-03-31T04:38:20.137Z,100.00
2023-03-31T04:40:51.240Z,100.00
2023-03-31T04:43:21.880Z,100.00
2023-03-31T04:45:51.052Z,100.00
2023-03-31T04:48:20.154Z,100.00
2023-03-31T04:50:51.444Z,100.00
2023-03-31T04:53:21.667Z,100.00
2023-03-31T04:55:50.923Z,100.00
2023-03-31T04:58:20.213Z,100.00
2023-03-31T05:00:49.338Z,100.00
2023-03-31T05:03:18.491Z,100.00
2023-03-31T05:05:48.280Z,100.00
2023-03-31T05:08:18.693Z,100.00
2023-03-31T05:10:47.894Z,100.00
2023-03-31T05:13:17.136Z,100.00
2023-03-31T05:15:48.258Z,100.00
2023-03-31T05:18:17.890Z,100.00
2023-03-31T05:20:46.956Z,100.00
2023-03-31T05:23:16.022Z,100.00
2023-03-31T05:25:46.893Z,100.00
2023-03-31T05:28:16.077Z,100.00
2023-03-31T05:30:45.320Z,100.00
2023-03-31T05:33:15.025Z,100.00
2023-03-31T05:35:44.100Z,100.00
2023-03-31T05:38:13.259Z,100.00
2023-03-31T05:40:42.936Z,100.00
2023-03-31T05:43:14.124Z,100.00
2023-03-31T05:45:43.404Z,100.00
2023-03-31T05:48:12.500Z,100.00
2023-03-31T05:50:43.277Z,100.00
2023-03-31T05:53:12.837Z,100.00
2023-03-31T05:55:41.865Z,100.00
2023-03-31T05:58:11.017Z,100.00
2023-03-31T06:00:44.972Z,100.00
2023-03-31T06:03:14.342Z,100.00
2023-03-31T06:05:49.952Z,100.00
2023-03-31T06:08:19.303Z,100.00
2023-03-31T06:10:48.364Z,100.00
2023-03-31T06:13:17.843Z,100.00
2023-03-31T06:15:57.171Z,100.00
2023-03-31T06:18:27.041Z,100.00
2023-03-31T06:20:56.356Z,100.00
2023-03-31T06:23:25.902Z,100.00
2023-03-31T06:25:55.513Z,100.00
2023-03-31T06:28:26.094Z,100.00
2023-03-31T06:31:04.196Z,100.00
2023-03-31T06:33:33.952Z,100.00
2023-03-31T06:36:05.885Z,100.00
2023-03-31T06:38:35.433Z,100.00
2023-03-31T06:41:04.849Z,100.00
2023-03-31T06:43:34.758Z,95.16
2023-03-31T06:46:05.963Z,93.96
2023-03-31T06:48:35.511Z,89.78
2023-03-31T06:51:06.822Z,87.66
2023-03-31T06:53:36.850Z,80.20
2023-03-31T06:56:07.175Z,78.70
2023-03-31T06:58:36.817Z,70.85
2023-03-31T07:01:08.214Z,68.29
2023-03-31T07:03:39.344Z,66.51
2023-03-31T07:06:08.931Z,63.09
2023-03-31T07:08:37.933Z,63.91
2023-03-31T07:11:07.580Z,65.07
2023-03-31T07:13:36.763Z,62.33
2023-03-31T07:16:08.633Z,63.43
2023-03-31T07:18:41.249Z,60.27
2023-03-31T07:21:11.029Z,60.13
2023-03-31T07:23:40.514Z,58.93
2023-03-31T07:26:09.816Z,59.38
2023-03-31T07:28:38.844Z,58.98
2023-03-31T07:31:14.285Z,62.30
2023-03-31T07:33:43.843Z,64.94
2023-03-31T07:36:14.127Z,65.42
2023-03-31T07:38:46.004Z,64.67
2023-03-31T07:41:16.972Z,61.71
2023-03-31T07:43:46.988Z,60.48
2023-03-31T07:46:20.904Z,60.66
2023-03-31T07:48:50.441Z,60.55
2023-03-31T07:51:22.543Z,58.28
2023-03-31T07:53:52.871Z,57.72
2023-03-31T07:56:23.155Z,57.67
2023-03-31T07:58:57.396Z,56.77
2023-03-31T08:01:29.108Z,52.92
2023-03-31T08:03:59.378Z,51.51
2023-03-31T08:06:29.285Z,50.37
2023-03-31T08:08:59.187Z,49.49
2023-03-31T08:11:28.420Z,51.85
2023-03-31T08:13:58.291Z,51.24
2023-03-31T08:16:28.872Z,51.37
2023-03-31T08:18:58.672Z,53.34
2023-03-31T08:21:27.738Z,52.47
2023-03-31T08:23:57.372Z,52.03
2023-03-31T08:26:26.804Z,51.17
2023-03-31T08:28:55.801Z,52.13
2023-03-31T08:31:27.454Z,50.62
2023-03-31T08:33:58.274Z,52.88
2023-03-31T08:36:28.392Z,52.14
2023-03-31T08:38:57.691Z,52.86
2023-03-31T08:41:42.294Z,53.73
2023-03-31T08:44:16.953Z,53.65
2023-03-31T08:46:46.426Z,53.24
2023-03-31T08:49:20.893Z,53.27
2023-03-31T08:51:56.827Z,54.75
2023-03-31T08:54:33.104Z,53.81
2023-03-31T08:57:05.728Z,54.23
2023-03-31T08:59:36.561Z,53.76
2023-03-31T09:02:19.040Z,54.77
2023-03-31T09:05:20.279Z,54.71
2023-03-31T09:08:00.432Z,54.67
2023-03-31T09:10:39.394Z,54.06
2023-03-31T09:13:25.986Z,54.16
2023-03-31T09:16:01.414Z,52.75
2023-03-31T09:18:33.294Z,52.27
2023-03-31T09:21:13.451Z,51.79
2023-03-31T09:23:46.337Z,49.98
2023-03-31T09:26:26.857Z,49.73
2023-03-31T09:28:59.662Z,48.67
2023-03-31T09:31:30.051Z,50.22
2023-03-31T09:34:03.234Z,50.47
2023-03-31T09:36:34.902Z,50.00
2023-03-31T09:39:05.372Z,48.43
2023-03-31T09:41:34.560Z,50.12
2023-03-31T09:44:03.618Z,49.89
2023-03-31T09:46:36.262Z,50.53
2023-03-31T09:49:13.461Z,51.10
2023-03-31T09:51:49.228Z,50.57
2023-03-31T09:54:26.794Z,52.13
2023-03-31T09:56:55.867Z,50.74
2023-03-31T09:59:31.863Z,50.50
2023-03-31T10:02:03.259Z,49.95
2023-03-31T10:04:35.061Z,49.54
2023-03-31T10:07:08.356Z,48.81
2023-03-31T10:09:40.851Z,47.44
2023-03-31T10:12:17.433Z,48.61
2023-03-31T10:14:50.181Z,48.00
2023-03-31T10:17:21.298Z,48.83
2023-03-31T10:19:52.235Z,48.47
2023-03-31T10:22:31.247Z,47.58
2023-03-31T10:25:11.169Z,48.12
2023-03-31T10:27:43.986Z,47.60
2023-03-31T10:30:19.965Z,47.64
2023-03-31T10:32:51.996Z,47.46
2023-03-31T10:35:27.994Z,48.27
2023-03-31T10:38:03.337Z,48.64
2023-03-31T10:40:36.688Z,48.65
2023-03-31T10:43:16.173Z,50.57
2023-03-31T10:45:49.473Z,50.90
2023-03-31T10:48:27.146Z,52.10
2023-03-31T10:51:00.128Z,52.11
2023-03-31T10:53:30.687Z,51.65
2023-03-31T10:56:23.380Z,52.76
2023-03-31T10:59:06.649Z,53.01
2023-03-31T11:01:49.640Z,53.48
2023-03-31T11:04:48.305Z,53.08
2023-03-31T11:07:40.747Z,53.06
2023-03-31T11:10:36.797Z,51.72
2023-03-31T11:13:15.053Z,52.11
2023-03-31T11:15:52.943Z,52.67
2023-03-31T11:18:42.339Z,51.88
2023-03-31T11:21:22.472Z,51.21
2023-03-31T11:24:00.557Z,51.48
2023-03-31T11:26:41.215Z,50.43
2023-03-31T11:29:24.659Z,50.41
2023-03-31T11:32:01.049Z,50.34
2023-03-31T11:34:57.455Z,50.92
2023-03-31T11:37:46.146Z,50.75
2023-03-31T11:40:34.668Z,50.54
2023-03-31T11:43:14.016Z,49.94
2023-03-31T11:45:51.179Z,50.00
2023-03-31T11:48:28.129Z,47.61
2023-03-31T11:50:58.896Z,46.73
2023-03-31T11:53:33.922Z,47.32
2023-03-31T11:56:07.897Z,45.45
2023-03-31T11:58:43.865Z,46.23
2023-03-31T12:01:21.765Z,44.18
2023-03-31T12:03:57.813Z,43.52
2023-03-31T12:06:32.351Z,43.96
2023-03-31T12:09:09.904Z,42.74
2023-03-31T12:11:44.898Z,42.35
2023-03-31T12:14:28.748Z,43.13
2023-03-31T12:17:01.751Z,42.73
2023-03-31T12:19:35.658Z,42.98
2023-03-31T12:22:15.572Z,43.77
2023-03-31T12:24:44.847Z,41.37
2023-03-31T12:27:18.869Z,39.72
2023-03-31T12:29:57.099Z,37.09
2023-03-31T12:32:29.853Z,36.70
2023-03-31T12:35:04.231Z,36.92
2023-03-31T12:38:16.631Z,35.73
2023-03-31T12:40:59.202Z,35.24
2023-03-31T12:43:48.836Z,36.75
2023-03-31T12:46:31.414Z,36.65
2023-03-31T12:49:17.882Z,37.01
2023-03-31T12:52:00.750Z,36.79
2023-03-31T12:54:45.945Z,36.30
2023-03-31T12:57:17.605Z,36.48
2023-03-31T12:59:47.341Z,38.55
2023-03-31T13:02:28.210Z,39.96
2023-03-31T13:04:57.490Z,41.11
2023-03-31T13:07:43.826Z,41.02
2023-03-31T13:10:28.485Z,39.89
2023-03-31T13:13:05.515Z,39.71
2023-03-31T13:15:35.238Z,38.71
2023-03-31T13:18:08.271Z,37.29
2023-03-31T13:20:39.383Z,37.33
2023-03-31T13:23:20.987Z,36.95
2023-03-31T13:25:52.301Z,35.35
2023-03-31T13:28:42.598Z,36.70
2023-03-31T13:31:13.490Z,36.86
2023-03-31T13:33:57.702Z,36.86
2023-03-31T13:36:51.591Z,37.79
2023-03-31T13:39:36.936Z,37.83
2023-03-31T13:42:28.206Z,38.53
2023-03-31T13:45:20.708Z,38.76
2023-03-31T13:48:05.838Z,39.02
2023-03-31T13:50:52.210Z,39.42
2023-03-31T13:53:42.290Z,39.88
2023-03-31T13:56:28.568Z,39.58
2023-03-31T13:59:29.488Z,39.98
2023-03-31T14:02:31.258Z,40.26
2023-03-31T14:05:24.417Z,39.62
2023-03-31T14:08:00.130Z,38.86
2023-03-31T14:10:32.408Z,38.51
2023-03-31T14:13:10.037Z,38.31
2023-03-31T14:15:42.559Z,39.68
2023-03-31T14:18:17.562Z,38.49
2023-03-31T14:20:57.665Z,37.94
2023-03-31T14:23:44.559Z,37.79
2023-03-31T14:26:22.911Z,38.73
2023-03-31T14:29:02.504Z,39.20
2023-03-31T14:31:37.140Z,39.29
2023-03-31T14:34:33.333Z,40.01
2023-03-31T14:37:05.245Z,39.05
2023-03-31T14:39:41.981Z,38.71
2023-03-31T14:42:14.996Z,38.13
2023-03-31T14:44:47.028Z,38.40
2023-03-31T14:47:22.155Z,38.38
2023-03-31T14:50:01.910Z,39.19
2023-03-31T14:52:35.913Z,38.14
2023-03-31T14:55:07.180Z,38.49
2023-03-31T14:57:39.850Z,38.88
2023-03-31T15:00:14.541Z,38.52
2023-03-31T15:02:46.058Z,39.55
2023-03-31T15:05:25.956Z,40.10
2023-03-31T15:07:59.509Z,40.47
2023-03-31T15:10:35.183Z,40.26
2023-03-31T15:13:11.140Z,40.42
2023-03-31T15:15:40.550Z,41.00
2023-03-31T15:18:13.486Z,40.85
2023-03-31T15:20:43.223Z,40.91
2023-03-31T15:23:25.213Z,41.42
2023-03-31T15:25:59.843Z,42.11
2023-03-31T15:28:34.261Z,42.96
2023-03-31T15:31:10.618Z,42.83
2023-03-31T15:33:42.923Z,42.94
2023-03-31T15:36:14.013Z,42.27
2023-03-31T15:38:44.225Z,42.92
2023-03-31T15:41:17.105Z,42.64
2023-03-31T15:43:51.113Z,43.42
2023-03-31T15:46:26.444Z,44.18
2023-03-31T15:48:59.097Z,44.30
2023-03-31T15:51:34.394Z,44.50
2023-03-31T15:54:03.708Z,44.67
2023-03-31T15:56:39.331Z,45.77
2023-03-31T16:02:20.354Z,48.25
2023-03-31T16:04:52.127Z,48.42
2023-03-31T16:07:25.190Z,49.39
2023-03-31T16:09:57.317Z,48.28
2023-03-31T16:12:31.884Z,48.12
2023-03-31T16:15:06.236Z,48.30
2023-03-31T16:17:40.100Z,48.65
2023-03-31T16:20:11.316Z,48.88
2023-03-31T16:22:44.762Z,49.68
2023-03-31T16:25:20.313Z,50.04
2023-03-31T16:27:55.126Z,50.99
2023-03-31T16:30:36.615Z,51.82
2023-03-31T16:33:07.689Z,52.73
2023-03-31T16:35:40.039Z,53.73
2023-03-31T16:38:11.614Z,54.03
2023-03-31T16:40:44.100Z,54.33
2023-03-31T16:43:18.063Z,55.12
2023-03-31T16:45:48.821Z,55.60
2023-03-31T16:48:19.385Z,55.85
2023-03-31T16:50:51.878Z,56.33
2023-03-31T16:53:24.283Z,56.28
2023-03-31T16:55:53.414Z,58.30
2023-03-31T16:58:25.112Z,58.79
2023-03-31T17:00:54.957Z,58.62
2023-03-31T17:03:25.100Z,58.42
2023-03-31T17:05:58.610Z,59.41
2023-03-31T17:08:29.443Z,61.14
2023-03-31T17:11:02.619Z,63.01
2023-03-31T17:13:34.006Z,63.95
2023-03-31T17:16:16.332Z,65.88
2023-03-31T17:18:51.489Z,69.85
2023-03-31T17:21:21.390Z,69.62
2023-03-31T17:23:50.630Z,70.39
2023-03-31T17:26:20.083Z,72.12
2023-03-31T17:28:50.846Z,72.70
2023-03-31T17:31:23.077Z,71.50
2023-03-31T17:33:52.218Z,71.87
2023-03-31T17:36:22.672Z,72.49
2023-03-31T17:38:52.395Z,72.28
2023-03-31T17:41:21.672Z,73.76
2023-03-31T17:43:52.315Z,75.08
2023-03-31T17:46:21.425Z,74.90
2023-03-31T17:48:51.128Z,72.87
2023-03-31T17:51:21.653Z,74.17
2023-03-31T17:53:51.124Z,77.16
2023-03-31T17:56:20.246Z,77.27
2023-03-31T17:58:49.452Z,77.27
2023-03-31T18:01:20.168Z,76.69
2023-03-31T18:03:50.082Z,78.07
2023-03-31T18:06:19.897Z,78.27
2023-03-31T18:08:49.138Z,81.32
2023-03-31T18:11:18.432Z,84.32
2023-03-31T18:13:47.758Z,84.22
2023-03-31T18:16:17.543Z,85.76
2023-03-31T18:18:49.334Z,85.83
2023-03-31T18:21:18.357Z,85.44
2023-03-31T18:23:52.833Z,87.93
2023-03-31T18:26:22.974Z,86.00
2023-03-31T18:28:52.426Z,85.25
2023-03-31T18:31:22.852Z,86.78
2023-03-31T18:33:54.843Z,85.31
2023-03-31T18:36:24.664Z,85.82
2023-03-31T18:38:55.735Z,85.82
2023-03-31T18:41:25.306Z,86.74
2023-03-31T18:43:54.828Z,85.88
2023-03-31T18:46:23.996Z,86.45
2023-03-31T18:48:54.802Z,88.36
2023-03-31T18:51:24.160Z,87.17
2023-03-31T18:53:53.200Z,87.94
2023-03-31T18:56:23.465Z,88.65
2023-03-31T18:58:52.999Z,88.78
2023-03-31T19:01:24.334Z,89.01
2023-03-31T19:03:55.047Z,90.50
2023-03-31T19:06:24.256Z,90.07
2023-03-31T19:08:54.958Z,89.38
2023-03-31T19:11:24.428Z,90.55
2023-03-31T19:13:55.852Z,91.65
2023-03-31T19:16:27.090Z,90.70
2023-03-31T19:18:57.884Z,91.05
2023-03-31T19:21:27.334Z,89.18
2023-03-31T19:23:56.345Z,88.29
2023-03-31T19:26:26.604Z,87.89
2023-03-31T19:28:57.565Z,88.55
2023-03-31T19:31:26.726Z,88.81
2023-03-31T19:33:55.946Z,90.01
2023-03-31T19:36:27.203Z,92.22
2023-03-31T19:38:56.390Z,91.97
2023-03-31T19:41:27.184Z,93.76
2023-03-31T19:43:56.587Z,92.68
2023-03-31T19:46:26.278Z,93.30
2023-03-31T19:48:55.467Z,92.71
2023-03-31T19:51:26.075Z,92.07
2023-03-31T19:53:55.243Z,90.53
2023-03-31T19:56:25.941Z,89.78
2023-03-31T19:58:55.210Z,90.34
2023-03-31T20:01:27.590Z,91.16
2023-03-31T20:03:57.371Z,90.36
2023-03-31T20:06:29.199Z,90.62
2023-03-31T20:09:00.373Z,91.46
2023-03-31T20:11:31.119Z,91.94
2023-03-31T20:14:00.989Z,90.99
2023-03-31T20:16:31.914Z,90.96
2023-03-31T20:19:04.420Z,90.32
2023-03-31T20:21:36.960Z,90.31
2023-03-31T20:24:07.715Z,89.05
2023-03-31T20:26:37.581Z,85.23
2023-03-31T20:29:06.933Z,85.45
2023-03-31T20:31:37.997Z,84.43
2023-03-31T20:34:08.636Z,82.82
2023-03-31T20:36:40.749Z,83.89
2023-03-31T20:39:11.035Z,84.20
2023-03-31T20:41:40.450Z,83.96
2023-03-31T20:44:13.498Z,83.73
2023-03-31T20:46:44.927Z,82.57
2023-03-31T20:49:14.297Z,81.25
2023-03-31T20:51:46.133Z,77.88
2023-03-31T20:54:15.771Z,78.21
2023-03-31T20:56:44.919Z,77.14
2023-03-31T20:59:16.344Z,75.58
2023-03-31T21:01:48.087Z,76.12
2023-03-31T21:04:18.290Z,75.20
2023-03-31T21:06:49.424Z,74.76
2023-03-31T21:09:18.796Z,76.38
2023-03-31T21:11:49.143Z,76.89
2023-03-31T21:14:19.336Z,77.42
2023-03-31T21:16:48.469Z,76.66
2023-03-31T21:19:17.539Z,75.86
2023-03-31T21:21:46.622Z,75.95
2023-03-31T21:24:17.226Z,75.54
2023-03-31T21:26:46.358Z,74.99
2023-03-31T21:29:15.314Z,76.22
2023-03-31T21:31:46.041Z,77.17
2023-03-31T21:34:15.172Z,77.14
2023-03-31T21:36:44.384Z,78.51
2023-03-31T21:39:13.387Z,78.26
2023-03-31T21:41:44.514Z,78.96
2023-03-31T21:44:13.636Z,78.38
2023-03-31T21:46:45.236Z,77.81
2023-03-31T21:49:15.285Z,77.82
2023-03-31T21:51:45.350Z,77.70
2023-03-31T21:54:15.118Z,78.31
2023-03-31T21:56:45.627Z,78.84
2023-03-31T21:59:14.792Z,78.69
2023-03-31T22:01:44.543Z,75.88
2023-03-31T22:04:13.779Z,72.95
2023-03-31T22:06:42.778Z,73.46
2023-03-31T22:09:11.875Z,73.59
2023-03-31T22:11:41.682Z,73.48
2023-03-31T22:14:12.396Z,73.42
2023-03-31T22:16:41.687Z,72.68
2023-03-31T22:19:14.500Z,72.48
2023-03-31T22:21:44.059Z,72.94
2023-03-31T22:24:14.798Z,75.77
2023-03-31T22:26:43.939Z,75.29
2023-03-31T22:29:17.361Z,76.00
2023-03-31T22:31:46.456Z,75.90
2023-03-31T22:34:16.187Z,76.34
2023-03-31T22:36:45.284Z,77.36
2023-03-31T22:39:14.395Z,78.05
2023-03-31T22:41:44.200Z,75.78
2023-03-31T22:44:13.953Z,73.65
2023-03-31T22:46:46.595Z,74.24
2023-03-31T22:49:16.765Z,75.89
2023-03-31T22:51:46.387Z,78.13
2023-03-31T22:54:18.444Z,76.50
2023-03-31T22:56:47.620Z,76.52
2023-03-31T22:59:19.251Z,77.80
2023-03-31T23:01:54.111Z,74.28
2023-03-31T23:04:23.623Z,75.06
2023-03-31T23:06:53.092Z,73.25
2023-03-31T23:09:22.421Z,72.50
2023-03-31T23:11:51.690Z,71.45
2023-03-31T23:14:20.783Z,71.54
2023-03-31T23:16:49.933Z,70.98
2023-03-31T23:19:20.945Z,76.09
2023-03-31T23:21:50.107Z,78.39
2023-03-31T23:24:21.499Z,79.12
2023-03-31T23:26:50.811Z,77.87
2023-03-31T23:29:19.738Z,80.81
2023-03-31T23:31:48.894Z,80.02
2023-03-31T23:34:19.561Z,79.78
2023-03-31T23:36:48.706Z,80.61
2023-03-31T23:39:17.622Z,79.88
2023-03-31T23:41:47.474Z,82.22
2023-03-31T23:44:16.696Z,82.38
2023-03-31T23:46:46.565Z,78.66
2023-03-31T23:49:16.034Z,76.93
2023-03-31T23:51:46.549Z,76.43
2023-03-31T23:54:15.620Z,76.92
2023-03-31T23:56:44.622Z,77.60
2023-03-31T23:59:17.146Z,83.91
